Time;durP1;ratioP1;P1;durP2;ratioP2;P2;SDS_P1;SDS_P2;PMS_P1;PMS_P2;Temp;Humidity;BMP_temperature;BMP_pressure;BME280_temperature;BME280_humidity;BME280_pressure;Samples;Min_cycle;Max_cycle;Signal;HPM_P1;HPM_P2
2021/06/01 00:00:39;;;;;;;4.25;2.75;;;16.50;99.90;;;16.36;72.43;100855.56;4120101;28;20501;-67
2021/06/01 00:02:40;;;;;;;3.33;2.85;;;16.40;99.90;;;16.30;72.68;100846.50;4119942;28;20086;-67
2021/06/01 00:04:41;;;;;;;3.75;3.10;;;16.40;99.90;;;16.42;70.58;100844.97;4119794;28;20121;-67
2021/06/01 00:06:43;;;;;;;4.65;3.00;;;16.40;99.70;;;16.52;70.07;100853.44;4119610;28;20055;-67
2021/06/01 00:08:45;;;;;;;4.70;3.10;;;16.50;99.30;;;16.41;71.59;100853.97;4134347;28;20061;-67
2021/06/01 00:10:46;;;;;;;5.00;3.10;;;16.40;99.90;;;16.38;69.92;100842.88;4119981;28;20037;-67
2021/06/01 00:12:47;;;;;;;4.97;3.10;;;16.40;99.10;;;16.36;71.22;100836.91;4118596;28;20039;-67
2021/06/01 00:14:48;;;;;;;3.45;2.80;;;16.40;99.70;;;16.29;71.88;100839.53;4118519;28;20031;-67
2021/06/01 00:16:50;;;;;;;6.85;3.47;;;16.40;99.90;;;16.37;71.82;100841.22;4119518;28;20035;-67
2021/06/01 00:18:51;;;;;;;4.60;2.53;;;16.40;99.90;;;16.27;72.62;100846.88;4119873;28;20034;-67
2021/06/01 00:20:52;;;;;;;5.43;2.70;;;16.30;99.90;;;16.19;72.68;100839.00;4119679;28;20023;-67
2021/06/01 00:22:53;;;;;;;4.30;2.90;;;16.30;99.90;;;16.24;71.85;100841.94;4119395;28;20030;-67
2021/06/01 00:24:54;;;;;;;4.53;2.92;;;16.30;99.90;;;16.29;70.88;100844.00;4119792;28;20019;-67
2021/06/01 00:26:55;;;;;;;3.40;2.70;;;16.30;99.70;;;16.13;72.40;100837.09;4119732;28;20027;-67
2021/06/01 00:28:56;;;;;;;3.03;2.50;;;16.30;99.90;;;16.02;73.07;100835.78;4119834;28;20047;-67
2021/06/01 00:30:57;;;;;;;5.32;2.95;;;16.20;99.90;;;15.93;73.18;100820.13;4134313;28;20034;-67
2021/06/01 00:32:58;;;;;;;6.03;3.35;;;16.10;99.90;;;15.85;73.50;100829.06;4121352;28;20051;-67
2021/06/01 00:34:59;;;;;;;3.85;2.78;;;16.00;99.90;;;15.81;73.98;100813.63;4123043;28;20046;-67
2021/06/01 00:37:00;;;;;;;4.75;3.22;;;16.00;99.90;;;15.87;74.52;100826.19;4122680;28;20046;-67
2021/06/01 00:39:03;;;;;;;4.15;2.90;;;15.90;99.90;;;15.93;73.64;100825.44;4122763;28;20031;-67
2021/06/01 00:41:05;;;;;;;3.28;2.97;;;15.90;99.90;;;15.87;73.77;100823.53;4122924;28;20038;-67
2021/06/01 00:43:06;;;;;;;4.50;3.13;;;15.90;99.90;;;15.80;74.18;100823.44;4122839;28;20086;-67
2021/06/01 00:45:07;;;;;;;4.05;3.33;;;15.90;99.90;;;15.79;73.82;100818.31;4122947;28;20030;-67
2021/06/01 00:47:08;;;;;;;5.93;2.85;;;15.90;99.90;;;15.71;74.54;100829.09;4122768;28;20118;-67
2021/06/01 00:49:10;;;;;;;5.00;2.88;;;15.80;99.90;;;15.58;75.02;100810.31;4122805;28;20073;-67
2021/06/01 00:51:11;;;;;;;3.60;3.28;;;15.70;99.90;;;15.54;75.11;100817.81;4122902;28;20545;-67
2021/06/01 00:53:12;;;;;;;4.47;2.95;;;15.70;99.90;;;15.53;75.12;100804.72;4122425;28;20027;-67
2021/06/01 00:55:15;;;;;;;3.65;3.13;;;15.60;99.90;;;15.60;75.04;100817.09;4122585;28;20035;-67
2021/06/01 00:57:15;;;;;;;3.25;2.90;;;15.60;99.90;;;15.53;75.36;100818.03;4122592;28;20035;-67
2021/06/01 00:59:16;;;;;;;5.30;3.20;;;15.60;99.90;;;15.47;75.87;100806.31;4122625;28;20090;-67
2021/06/01 01:01:20;;;;;;;3.65;2.83;;;15.60;99.90;;;15.45;75.63;100814.41;4122517;28;20541;-67
2021/06/01 01:03:21;;;;;;;3.63;2.95;;;15.50;99.90;;;15.27;75.97;100799.88;4122521;28;20031;-67
2021/06/01 01:05:26;;;;;;;4.55;2.90;;;15.40;99.90;;;15.11;76.70;100806.22;4122425;28;20438;-68
2021/06/01 01:07:44;;;;;;;3.80;2.90;;;15.30;99.90;;;15.03;77.02;100793.00;4122052;28;20034;-68
2021/06/01 01:09:47;;;;;;;3.67;2.92;;;15.20;99.90;;;15.00;76.68;100804.00;4121420;28;20086;-67
2021/06/01 01:12:14;;;;;;;3.30;2.83;;;15.10;99.90;;;14.91;76.87;100799.78;4122599;28;20084;-67
2021/06/01 01:14:22;;;;;;;3.97;2.88;;;15.10;99.90;;;14.99;77.12;100797.06;4121014;28;20089;-67
2021/06/01 01:16:28;;;;;;;5.00;2.78;;;15.00;99.90;;;15.05;76.35;100798.16;4121094;28;20391;-67
2021/06/01 01:18:31;;;;;;;4.07;3.25;;;15.10;99.90;;;14.92;77.58;100793.47;4122340;28;20031;-67
2021/06/01 01:21:08;;;;;;;5.90;3.45;;;15.00;99.90;;;14.90;77.40;100787.53;4121014;28;20027;-67
2021/06/01 01:23:18;;;;;;;3.30;3.00;;;15.00;99.90;;;14.89;75.58;100796.50;4120824;28;20058;-67
2021/06/01 01:25:40;;;;;;;4.07;3.60;;;15.00;99.90;;;14.96;76.05;100792.91;4121137;28;20073;-67
2021/06/01 01:28:07;;;;;;;4.57;3.50;;;15.00;99.90;;;15.01;76.23;100787.06;4120956;28;20094;-67
2021/06/01 01:30:12;;;;;;;6.63;3.55;;;15.00;99.90;;;15.04;74.94;100785.88;4122066;28;20035;-67
2021/06/01 01:32:50;;;;;;;4.25;2.80;;;15.10;99.90;;;14.86;76.02;100778.25;4121015;28;20534;-67
2021/06/01 01:34:53;;;;;;;6.00;3.10;;;15.00;99.90;;;14.92;76.24;100772.22;4121307;28;20027;-67
2021/06/01 01:36:57;;;;;;;3.42;2.92;;;15.00;99.90;;;14.85;76.68;100764.16;4121758;28;20372;-67
2021/06/01 01:38:59;;;;;;;3.55;3.00;;;15.00;99.90;;;14.84;76.94;100764.34;4120804;28;20035;-67
2021/06/01 01:41:15;;;;;;;3.65;2.80;;;15.00;99.90;;;14.94;76.05;100765.72;4120901;28;20463;-67
2021/06/01 01:43:24;;;;;;;3.70;2.80;;;15.00;99.90;;;14.95;75.83;100761.22;4121916;28;20031;-67
2021/06/01 01:45:30;;;;;;;6.05;3.13;;;15.00;99.90;;;15.03;74.92;100766.44;4120769;28;20046;-67
2021/06/01 01:49:37;;;;;;;3.85;3.03;;;15.00;99.90;;;14.87;74.84;100761.34;4121886;28;20027;-67
2021/06/01 01:51:45;;;;;;;5.85;2.97;;;15.00;99.90;;;14.99;74.76;100767.00;4120560;28;20082;-67
2021/06/01 01:53:59;;;;;;;5.72;3.20;;;15.00;99.90;;;15.08;75.87;100773.88;4121441;28;20537;-67
2021/06/01 01:56:00;;;;;;;4.15;3.42;;;15.00;99.90;;;14.92;75.23;100765.09;4120612;28;20499;-67
2021/06/01 01:58:01;;;;;;;4.03;2.70;;;15.00;99.90;;;15.03;72.73;100763.78;4120525;28;20027;-67
2021/06/01 02:00:15;;;;;;;2.90;2.60;;;15.00;99.90;;;15.04;74.33;100775.25;4120513;28;20041;-67
2021/06/01 02:02:16;;;;;;;3.88;2.78;;;15.10;99.90;;;14.88;75.27;100762.97;4121665;28;20494;-67
2021/06/01 02:04:24;;;;;;;8.02;3.05;;;15.00;99.90;;;14.99;74.45;100767.00;4120599;28;20031;-67
2021/06/01 02:06:25;;;;;;;4.57;3.05;;;15.00;99.90;;;14.96;73.90;100757.56;4121393;28;20047;-67
2021/06/01 02:08:26;;;;;;;4.53;3.00;;;15.00;99.90;;;15.00;72.82;100756.19;4121218;28;20443;-67
2021/06/01 02:10:27;;;;;;;6.28;3.22;;;15.00;99.90;;;15.02;73.48;100754.19;4120256;28;20050;-67
2021/06/01 02:12:27;;;;;;;6.00;3.55;;;15.00;99.90;;;14.96;73.18;100761.03;4121486;28;20031;-67
2021/06/01 02:14:29;;;;;;;3.88;2.88;;;15.00;99.90;;;14.85;74.25;100758.84;4120277;28;20031;-67
2021/06/01 02:16:39;;;;;;;5.18;3.20;;;15.00;99.90;;;14.87;74.22;100758.69;4120048;28;20430;-67
2021/06/01 02:18:40;;;;;;;3.30;2.80;;;15.00;99.90;;;14.83;74.95;100757.38;4120297;28;20073;-67
2021/06/01 02:20:43;;;;;;;3.70;2.75;;;14.90;99.90;;;14.76;75.35;100749.31;4136035;28;20039;-67
2021/06/01 02:26:15;;;;;;;7.07;3.20;;;14.90;99.90;;;14.90;73.08;100750.34;4112134;28;20090;-67
2021/06/01 02:28:28;;;;;;;3.35;2.42;;;14.90;99.90;;;14.93;71.91;100745.47;4104266;28;20040;-67
2021/06/01 02:30:56;;;;;;;4.57;2.70;;;15.00;99.90;;;14.92;72.07;100740.34;4105333;28;20399;-67
2021/06/01 02:33:00;;;;;;;4.30;3.00;;;15.00;99.90;;;14.99;72.69;100743.09;4112532;28;20074;-67
2021/06/01 02:35:08;;;;;;;5.78;2.92;;;15.00;99.90;;;14.98;72.37;100736.97;4120174;28;20041;-67
2021/06/01 02:37:10;;;;;;;3.88;3.15;;;15.00;99.90;;;14.81;73.51;100728.34;4120751;28;20049;-67
2021/06/01 02:39:12;;;;;;;3.83;2.90;;;15.00;99.90;;;14.90;72.71;100731.75;4119795;28;20034;-67
2021/06/01 02:41:15;;;;;;;3.80;2.67;;;15.00;99.90;;;15.04;70.60;100725.59;4119879;28;20027;-67
2021/06/01 02:43:16;;;;;;;5.13;3.13;;;15.10;99.90;;;14.99;71.65;100735.13;4121174;28;20035;-67
2021/06/01 02:45:20;;;;;;;3.97;3.03;;;15.10;99.90;;;15.11;70.40;100731.81;4119865;28;20088;-67
2021/06/01 02:47:21;;;;;;;3.92;2.40;;;15.10;99.90;;;15.01;71.60;100736.59;4119861;28;20027;-67
2021/06/01 02:49:23;;;;;;;3.00;2.70;;;15.10;99.90;;;14.80;73.01;100717.91;4121145;28;20130;-67
2021/06/01 02:51:24;;;;;;;3.90;3.13;;;15.00;99.90;;;14.73;74.13;100738.22;4119815;28;20165;-67
2021/06/01 02:53:26;;;;;;;4.57;3.25;;;14.90;99.90;;;14.56;74.50;100715.53;4120639;28;20117;-67
2021/06/01 02:55:27;;;;;;;8.52;3.53;;;14.80;99.90;;;14.68;75.35;100722.03;4119047;28;20030;-67
2021/06/01 02:57:29;;;;;;;4.90;2.53;;;14.80;99.90;;;14.62;75.78;100714.81;4120872;28;20402;-67
2021/06/01 02:59:31;;;;;;;3.58;2.67;;;14.70;99.90;;;14.65;75.35;100725.06;4119819;28;20027;-67
2021/06/01 03:01:32;;;;;;;3.92;2.97;;;14.70;99.90;;;14.66;74.68;100726.72;4120809;28;20117;-67
2021/06/01 03:03:33;;;;;;;4.38;2.97;;;14.70;99.90;;;14.58;75.40;100724.13;4120516;28;20023;-67
2021/06/01 03:05:34;;;;;;;6.43;3.15;;;14.70;99.90;;;14.63;75.01;100722.59;4120619;28;20110;-67
2021/06/01 03:07:41;;;;;;;3.75;3.13;;;14.60;99.90;;;14.67;74.58;100723.03;4120540;28;20030;-67
2021/06/01 03:09:42;;;;;;;4.60;3.22;;;14.60;99.90;;;14.60;74.68;100722.13;4119496;28;20494;-67
2021/06/01 03:11:45;;;;;;;3.72;2.90;;;14.60;99.90;;;14.48;75.66;100723.59;4120526;28;20102;-67
2021/06/01 03:13:50;;;;;;;3.67;3.00;;;14.50;99.90;;;14.44;75.71;100712.50;4119195;28;20117;-67
2021/06/01 03:15:52;;;;;;;4.75;3.10;;;14.50;99.90;;;14.52;74.53;100711.56;4119452;28;20038;-67
2021/06/01 03:17:53;;;;;;;6.03;3.40;;;14.50;99.90;;;14.43;75.44;100720.63;4120457;28;20041;-67
2021/06/01 03:19:54;;;;;;;3.40;2.90;;;14.50;99.90;;;14.25;76.40;100703.19;4120474;28;20031;-67
2021/06/01 03:21:55;;;;;;;5.03;3.10;;;14.50;99.90;;;14.36;76.77;100704.63;4120236;28;20501;-67
2021/06/01 03:23:56;;;;;;;3.45;3.10;;;14.40;99.90;;;14.34;76.33;100702.16;4110103;28;20078;-67
2021/06/01 03:25:57;;;;;;;5.35;3.15;;;14.40;99.90;;;14.24;76.82;100696.25;4104377;28;20043;-67
2021/06/01 03:27:58;;;;;;;3.53;3.22;;;14.40;99.90;;;14.19;76.66;100695.97;4104426;28;20562;-67
2021/06/01 03:29:59;;;;;;;5.47;3.08;;;14.30;99.90;;;14.14;76.64;100697.50;4104416;28;20035;-67
2021/06/01 03:32:00;;;;;;;3.90;3.03;;;14.30;99.90;;;14.06;77.47;100703.72;4104276;28;20023;-67
2021/06/01 03:34:01;;;;;;;4.95;2.92;;;14.20;99.90;;;14.11;77.03;100695.22;4103148;28;20174;-67
2021/06/01 03:36:04;;;;;;;3.90;2.55;;;14.20;99.90;;;14.29;75.29;100693.06;4104214;28;20070;-67
2021/06/01 03:38:06;;;;;;;4.38;2.55;;;14.20;99.90;;;14.18;75.75;100686.38;4104052;28;20035;-67
2021/06/01 03:40:07;;;;;;;3.85;2.95;;;14.30;99.90;;;14.13;76.18;100675.44;4104321;28;20050;-67
2021/06/01 03:42:12;;;;;;;2.83;2.40;;;14.30;99.90;;;14.08;76.91;100693.75;4104251;28;20510;-67
2021/06/01 03:44:12;;;;;;;;;;;14.20;99.90;;;14.05;77.02;100690.63;4104429;28;20078;-67
2021/06/01 03:46:13;;;;;;;5.63;2.70;;;14.20;99.90;;;14.16;75.85;100688.34;4104290;28;19914;-67
2021/06/01 03:48:14;;;;;;;4.35;2.70;;;14.20;99.90;;;14.17;74.84;100684.72;4104260;28;20415;-67
2021/06/01 03:50:15;;;;;;;4.18;3.03;;;14.20;99.90;;;14.18;75.37;100689.03;4104139;28;20028;-67
2021/06/01 03:52:16;;;;;;;4.47;2.80;;;14.30;99.90;;;14.16;76.40;100692.84;4103766;28;20033;-67
2021/06/01 03:54:17;;;;;;;5.38;2.70;;;14.20;99.90;;;14.13;74.77;100683.41;4103007;28;20082;-67
2021/06/01 03:56:18;;;;;;;3.53;3.00;;;14.20;99.90;;;14.17;74.80;100679.41;4104062;28;20487;-67
2021/06/01 03:58:20;;;;;;;5.18;2.80;;;14.20;99.90;;;14.26;75.07;100683.63;4103886;28;20035;-67
2021/06/01 04:00:29;;;;;;;4.15;3.03;;;14.30;99.90;;;14.15;75.84;100678.78;4104005;28;20487;-67
2021/06/01 04:02:30;;;;;;;6.72;3.40;;;14.30;99.90;;;14.23;74.88;100680.50;4103927;28;20019;-68
2021/06/01 04:04:31;;;;;;;3.92;2.85;;;14.30;99.90;;;14.23;74.30;100678.69;4103899;28;20082;-67
2021/06/01 04:06:34;;;;;;;4.18;2.55;;;14.30;99.90;;;14.16;75.35;100672.44;4103467;28;20522;-67
2021/06/01 04:08:37;;;;;;;7.65;3.00;;;14.30;99.90;;;14.10;76.04;100665.19;4103579;28;20099;-67
2021/06/01 04:10:38;;;;;;;3.35;2.50;;;14.30;99.90;;;13.97;76.43;100665.00;4119877;28;20491;-67
2021/06/01 04:12:39;;;;;;;3.60;2.95;;;14.20;99.90;;;14.08;74.76;100661.91;4119811;28;20027;-67
2021/06/01 04:14:40;;;;;;;7.18;2.90;;;14.20;99.90;;;14.12;75.14;100668.53;4118237;28;20462;-67
2021/06/01 04:16:41;;;;;;;5.70;3.00;;;14.20;99.90;;;14.26;73.91;100673.00;4106416;28;20035;-67
2021/06/01 04:18:42;;;;;;;5.75;3.45;;;14.30;99.90;;;14.31;73.00;100665.31;4101295;28;20047;-67
2021/06/01 04:20:43;;;;;;;5.63;3.15;;;14.40;99.90;;;14.31;73.42;100670.63;4103738;28;20027;-67
2021/06/01 04:22:45;;;;;;;3.92;3.22;;;14.40;99.90;;;14.14;73.80;100652.41;4115911;28;20487;-67
2021/06/01 04:24:46;;;;;;;3.10;2.53;;;14.40;99.90;;;14.07;74.62;100665.56;4119687;28;20081;-67
2021/06/01 04:26:47;;;;;;;2.95;2.65;;;14.30;99.90;;;14.04;75.78;100663.28;4119743;28;20039;-67
2021/06/01 04:28:49;;;;;;;6.75;3.22;;;14.20;99.90;;;14.09;75.61;100660.91;4119821;28;20035;-67
2021/06/01 04:30:49;;;;;;;3.20;2.63;;;14.20;99.90;;;14.10;75.45;100656.41;4134472;28;20118;-67
2021/06/01 04:32:50;;;;;;;7.32;2.75;;;14.20;99.90;;;14.11;75.78;100664.22;4119475;28;20479;-67
2021/06/01 04:34:51;;;;;;;3.90;3.05;;;14.20;99.90;;;14.05;76.78;100664.94;4119727;28;20082;-67
2021/06/01 04:36:52;;;;;;;5.05;2.85;;;14.20;99.90;;;14.17;74.37;100660.00;4119412;28;20031;-67
2021/06/01 04:38:55;;;;;;;4.25;2.92;;;14.30;99.90;;;14.24;75.31;100658.28;4119706;28;20459;-67
2021/06/01 04:40:56;;;;;;;3.95;2.97;;;14.30;99.90;;;14.05;76.14;100646.38;4119631;28;20089;-67
2021/06/01 04:42:57;;;;;;;3.65;3.15;;;14.30;99.90;;;14.37;72.97;100659.31;4119698;28;20121;-67
2021/06/01 04:44:58;;;;;;;4.72;2.85;;;14.40;99.90;;;14.33;73.19;100658.06;4119627;28;20038;-67
2021/06/01 04:46:58;;;;;;;4.63;2.50;;;14.50;99.90;;;14.44;72.89;100661.25;4119616;28;20054;-67
2021/06/01 04:49:00;;;;;;;3.55;2.70;;;14.60;99.90;;;14.36;74.59;100656.88;4119549;28;20030;-67
2021/06/01 04:51:01;;;;;;;3.33;2.95;;;14.60;99.90;;;14.34;74.57;100653.56;4119528;28;20026;-67
2021/06/01 04:53:02;;;;;;;3.47;2.78;;;14.60;99.90;;;14.40;75.63;100652.81;4119465;28;20117;-67
2021/06/01 04:55:04;;;;;;;5.45;2.88;;;14.60;99.90;;;14.42;74.39;100645.53;4119428;28;20035;-67
2021/06/01 04:57:07;;;;;;;4.47;3.20;;;14.60;99.90;;;14.46;74.91;100662.69;4119358;28;20074;-67
2021/06/01 04:59:08;;;;;;;4.43;2.92;;;14.70;99.90;;;14.42;74.55;100663.28;4119587;28;20050;-67
2021/06/01 05:01:09;;;;;;;4.45;2.92;;;14.70;99.90;;;14.48;74.64;100660.72;4119435;28;20027;-67
2021/06/01 05:03:10;;;;;;;4.30;2.90;;;14.70;99.90;;;14.57;72.31;100664.09;4119513;28;20033;-67
2021/06/01 05:05:11;;;;;;;4.38;3.20;;;14.80;99.90;;;14.55;73.83;100660.78;4119348;28;20102;-67
2021/06/01 05:07:12;;;;;;;3.22;2.47;;;14.80;99.90;;;14.64;72.20;100665.81;4118888;28;20055;-67
2021/06/01 05:09:13;;;;;;;4.55;2.97;;;14.80;99.90;;;14.66;72.79;100668.31;4119387;28;20030;-67
2021/06/01 05:11:15;;;;;;;6.22;3.05;;;14.90;99.90;;;14.57;73.92;100667.56;4119455;28;20030;-67
2021/06/01 05:13:16;;;;;;;5.93;3.05;;;14.80;99.90;;;14.68;73.53;100666.28;4118070;28;20027;-67
2021/06/01 05:15:17;;;;;;;8.35;3.20;;;14.80;99.90;;;14.61;74.07;100657.38;4119529;28;20038;-67
2021/06/01 05:17:18;;;;;;;3.92;2.83;;;14.80;99.90;;;14.70;72.91;100662.44;4134074;28;20513;-67
2021/06/01 05:19:19;;;;;;;3.65;2.80;;;14.90;99.90;;;14.77;72.18;100654.56;4121223;28;20050;-67
2021/06/01 05:21:20;;;;;;;3.72;3.03;;;15.00;99.90;;;14.66;74.28;100655.03;4122142;28;20026;-67
2021/06/01 05:23:20;;;;;;;7.00;3.58;;;15.00;99.90;;;14.63;74.59;100652.75;4122035;28;20023;-67
2021/06/01 05:25:21;;;;;;;3.65;2.78;;;14.90;99.90;;;14.60;75.13;100637.19;4122228;28;20027;-67
2021/06/01 05:27:22;;;;;;;4.25;3.17;;;14.90;99.90;;;14.72;74.24;100643.66;4122208;28;20498;-67
2021/06/01 05:29:23;;;;;;;4.05;3.10;;;14.90;99.90;;;14.72;73.66;100647.16;4122000;28;20026;-67
2021/06/01 05:31:42;;;;;;;5.47;2.90;;;15.00;99.90;;;14.69;74.60;100647.53;4122282;28;20054;-67
2021/06/01 05:33:51;;;;;;;5.43;2.70;;;14.90;99.90;;;14.76;73.95;100647.59;4122124;28;20398;-67
2021/06/01 05:35:53;;;;;;;6.40;3.33;;;14.90;99.90;;;14.73;74.45;100647.94;4121883;28;20035;-67
2021/06/01 05:37:55;;;;;;;4.03;2.72;;;14.90;99.90;;;14.67;74.24;100641.56;4121876;28;20479;-67
2021/06/01 05:39:55;;;;;;;3.15;2.70;;;14.90;99.90;;;14.70;74.19;100645.66;4122137;28;20030;-67
2021/06/01 05:41:56;;;;;;;8.48;4.13;;;14.90;99.90;;;14.72;74.88;100646.31;4122031;28;20054;-67
2021/06/01 05:43:57;;;;;;;8.15;3.92;;;14.90;99.90;;;14.77;74.33;100647.41;4121796;28;20031;-67
2021/06/01 05:45:58;;;;;;;4.95;3.22;;;14.90;99.90;;;14.70;74.73;100643.00;4121975;28;20031;-67
2021/06/01 05:47:59;;;;;;;5.72;3.33;;;15.00;99.90;;;14.83;74.85;100643.19;4121831;28;20035;-67
2021/06/01 05:50:00;;;;;;;5.60;2.90;;;15.00;99.90;;;14.79;75.60;100644.56;4121858;28;20037;-67
2021/06/01 05:52:01;;;;;;;10.88;5.22;;;15.00;99.90;;;14.90;74.94;100633.47;4121600;28;20023;-67
2021/06/01 05:54:06;;;;;;;4.85;3.00;;;15.10;99.90;;;14.95;75.50;100642.53;4121954;28;20030;-67
2021/06/01 05:56:07;;;;;;;5.43;3.20;;;15.10;99.90;;;14.96;76.22;100643.34;4121933;28;20035;-67
2021/06/01 05:58:08;;;;;;;4.53;2.78;;;15.20;99.90;;;14.97;74.59;100642.31;4120242;28;20042;-67
2021/06/01 06:00:10;;;;;;;3.85;2.88;;;15.20;99.90;;;15.11;74.63;100635.34;4121274;28;20027;-67
2021/06/01 06:02:10;;;;;;;4.70;3.17;;;15.30;99.90;;;15.13;74.78;100641.28;4121713;28;20536;-67
2021/06/01 06:04:11;;;;;;;4.60;3.10;;;15.40;99.90;;;15.17;73.39;100645.22;4121565;28;20058;-67
2021/06/01 06:06:13;;;;;;;5.30;3.30;;;15.40;99.90;;;15.09;71.63;100640.84;4121358;28;20098;-67
2021/06/01 06:08:17;;;;;;;6.00;3.55;;;15.40;99.90;;;15.20;74.05;100650.16;4121225;28;20038;-67
2021/06/01 06:10:19;;;;;;;5.63;3.00;;;15.50;99.90;;;15.22;73.03;100640.16;4121366;28;20037;-67
2021/06/01 06:12:19;;;;;;;7.25;3.42;;;15.50;99.90;;;15.23;71.32;100647.94;4121500;28;20457;-67
2021/06/01 06:14:20;;;;;;;4.65;3.03;;;15.60;99.90;;;15.07;72.86;100615.47;4121337;28;20058;-67
2021/06/01 06:16:21;;;;;;;4.47;2.92;;;15.60;99.90;;;15.34;72.11;100631.50;4120030;28;20108;-67
2021/06/01 06:18:45;;;;;;;4.22;2.72;;;15.60;99.90;;;15.38;73.52;100638.06;4121295;28;20487;-67
2021/06/01 06:20:46;;;;;;;3.05;2.75;;;15.80;99.90;;;15.43;74.25;100634.84;4120264;28;20054;-67
2021/06/01 06:22:47;;;;;;;6.03;3.80;;;15.80;99.90;;;15.39;71.78;100628.25;4120866;28;20128;-67
2021/06/01 06:24:48;;;;;;;5.80;2.85;;;15.80;99.90;;;15.44;71.26;100629.34;4103933;28;20043;-67
2021/06/01 06:26:49;;;;;;;4.93;2.70;;;15.90;99.90;;;15.53;69.50;100640.69;4104183;28;20877;-67
2021/06/01 06:28:50;;;;;;;7.00;2.63;;;16.00;99.90;;;15.63;70.12;100640.38;4105269;28;20023;-67
2021/06/01 06:30:51;;;;;;;6.78;3.42;;;16.00;99.90;;;15.74;70.72;100647.88;4104380;28;20042;-67
2021/06/01 06:32:52;;;;;;;6.07;2.95;;;16.10;99.90;;;15.70;70.17;100643.94;4104916;28;20428;-67
2021/06/01 06:34:54;;;;;;;9.40;4.13;;;16.20;99.90;;;15.77;71.04;100647.47;4105194;28;20375;-67
2021/06/01 06:36:55;;;;;;;6.40;3.20;;;16.30;99.90;;;15.81;69.74;100636.25;4104615;28;20043;-68
2021/06/01 06:38:56;;;;;;;4.78;2.50;;;16.20;99.90;;;15.90;68.83;100647.56;4105153;28;20071;-68
2021/06/01 06:43:04;;;;;;;7.20;3.20;;;16.40;99.90;;;15.98;70.51;100639.44;4104812;28;20062;-67
2021/06/01 06:45:10;;;;;;;4.68;2.92;;;16.40;99.90;;;16.09;70.09;100638.94;4101477;28;20024;-67
2021/06/01 06:49:12;;;;;;;7.43;3.22;;;16.50;99.90;;;16.23;70.23;100637.16;4108312;28;20391;-67
2021/06/01 06:51:13;;;;;;;4.57;3.08;;;16.60;99.90;;;16.31;70.76;100640.50;4102720;28;20046;-67
2021/06/01 06:53:14;;;;;;;5.30;2.58;;;16.60;99.90;;;16.27;70.69;100638.44;4109921;28;20035;-68
2021/06/01 06:55:16;;;;;;;6.80;2.70;;;16.70;99.90;;;16.28;71.40;100640.88;4104357;28;20035;-68
2021/06/01 06:57:17;;;;;;;7.18;3.40;;;16.70;99.90;;;16.34;70.34;100639.28;4104679;28;20557;-68
2021/06/01 06:59:18;;;;;;;5.50;2.72;;;16.80;99.90;;;16.48;68.80;100649.00;4103532;28;20035;-68
2021/06/01 07:01:19;;;;;;;7.90;2.92;;;16.90;99.90;;;16.50;70.60;100642.44;4104614;28;20026;-68
2021/06/01 07:03:20;;;;;;;7.72;3.22;;;16.90;99.90;;;16.57;69.83;100647.84;4104372;28;20031;-67
2021/06/01 07:05:21;;;;;;;11.27;2.78;;;17.00;99.90;;;16.68;69.88;100641.97;4107465;28;20069;-68
2021/06/01 07:07:22;;;;;;;9.18;3.05;;;17.00;99.90;;;16.70;69.70;100639.06;4120199;28;20115;-67
2021/06/01 07:09:24;;;;;;;7.88;2.35;;;17.10;99.90;;;16.74;70.65;100633.19;4120412;28;20035;-68
2021/06/01 07:11:25;;;;;;;9.43;2.78;;;17.20;99.90;;;16.82;69.87;100629.50;4120555;28;20038;-68
2021/06/01 07:13:51;;;;;;;3.92;2.88;;;17.30;99.90;;;16.91;68.93;100630.97;4117185;28;20119;-67
2021/06/01 07:15:53;;;;;;;4.63;3.00;;;17.30;99.90;;;16.92;69.18;100620.13;4105558;28;20062;-67
2021/06/01 07:17:57;;;;;;;6.72;2.72;;;17.40;99.90;;;17.02;68.41;100633.09;4116205;28;20066;-68
2021/06/01 07:19:58;;;;;;;5.13;3.00;;;17.50;99.90;;;17.04;69.61;100625.69;4106949;28;20030;-67
2021/06/01 07:21:58;;;;;;;5.57;3.22;;;17.60;99.90;;;17.14;69.25;100628.81;4109948;28;20536;-68
2021/06/01 07:23:59;;;;;;;3.63;2.72;;;17.60;99.90;;;17.22;69.06;100628.63;4119872;28;20023;-68
2021/06/01 07:26:01;;;;;;;7.65;2.88;;;17.70;99.90;;;17.27;68.20;100623.50;4116935;28;20061;-67
2021/06/01 07:28:02;;;;;;;6.93;2.95;;;17.70;99.90;;;17.36;67.92;100624.94;4109023;28;20026;-68
2021/06/01 07:30:06;;;;;;;9.88;2.75;;;17.80;99.90;;;17.47;67.83;100626.22;4119169;28;20035;-66
2021/06/01 07:32:07;;;;;;;4.60;2.85;;;17.90;99.90;;;17.52;68.57;100623.75;4103941;28;20050;-67
2021/06/01 07:34:08;;;;;;;7.28;3.05;;;18.00;99.90;;;17.59;68.34;100621.94;4103668;28;20041;-66
2021/06/01 07:36:10;;;;;;;4.15;2.55;;;18.00;99.90;;;17.67;69.22;100617.22;4103722;28;20035;-66
2021/06/01 07:38:12;;;;;;;6.90;3.53;;;18.20;99.90;;;17.79;68.75;100619.28;4102037;28;20031;-67
2021/06/01 07:40:14;;;;;;;4.90;2.83;;;18.30;99.90;;;17.94;69.16;100623.38;4115975;28;20037;-66
2021/06/01 07:42:15;;;;;;;4.47;2.28;;;18.30;99.90;;;18.02;68.99;100619.66;4119466;28;20031;-66
2021/06/01 07:44:16;;;;;;;3.92;2.35;;;18.50;99.90;;;18.09;70.02;100615.97;4103755;28;20055;-66
2021/06/01 07:46:17;;;;;;;3.97;2.53;;;18.60;99.90;;;18.15;69.57;100615.13;4109714;28;20019;-66
2021/06/01 07:48:18;;;;;;;5.45;2.80;;;18.70;99.90;;;18.25;66.47;100598.66;4119487;28;20022;-66
2021/06/01 07:50:19;;;;;;;4.68;3.10;;;18.80;99.70;;;18.46;67.46;100617.09;4115930;28;20049;-67
2021/06/01 07:52:20;;;;;;;3.10;2.38;;;18.90;99.90;;;18.65;66.43;100610.91;4103089;28;20031;-66
2021/06/01 07:54:21;;;;;;;3.42;2.75;;;19.10;99.60;;;18.87;65.33;100607.94;4103443;28;20039;-67
2021/06/01 07:56:22;;;;;;;2.67;2.30;;;19.30;99.20;;;18.97;66.33;100602.94;4102949;28;20070;-67
2021/06/01 07:58:23;;;;;;;3.78;2.25;;;19.40;99.60;;;19.05;67.22;100610.72;4115405;28;20027;-67
2021/06/01 08:00:26;;;;;;;7.35;3.20;;;19.50;99.90;;;19.07;63.75;100588.09;4119092;28;20019;-67
2021/06/01 08:02:27;;;;;;;4.45;2.53;;;19.70;98.30;;;19.17;64.52;100598.31;4118374;28;20027;-67
2021/06/01 08:04:27;;;;;;;5.25;2.67;;;19.80;98.40;;;19.40;64.95;100590.56;4119293;28;20027;-67
2021/06/01 08:06:33;;;;;;;3.90;2.33;;;20.00;98.70;;;19.56;66.12;100584.66;4119186;28;20051;-67
2021/06/01 08:08:34;;;;;;;2.88;2.58;;;20.10;99.40;;;19.50;63.45;100590.91;4119453;28;20041;-67
2021/06/01 08:10:35;;;;;;;3.35;2.10;;;20.20;97.70;;;19.71;65.27;100585.16;4119806;28;20035;-67
2021/06/01 08:12:36;;;;;;;5.55;2.85;;;20.30;98.80;;;19.82;63.79;100589.81;4119632;28;20446;-68
2021/06/01 08:14:38;;;;;;;4.85;2.33;;;20.40;98.10;;;19.99;63.01;100591.91;4119462;28;20050;-68
2021/06/01 08:16:43;;;;;;;4.70;2.58;;;20.60;97.90;;;20.12;63.01;100583.75;4119483;28;20034;-68
2021/06/01 08:18:58;;;;;;;6.35;2.92;;;20.70;97.80;;;20.02;61.70;100583.44;4119944;28;20038;-68
2021/06/01 08:23:06;;;;;;;4.03;2.60;;;21.00;97.50;;;20.49;60.87;100587.28;4119421;28;20030;-68
2021/06/01 08:25:09;;;;;;;6.93;2.53;;;21.10;96.80;;;20.61;60.90;100580.94;4117697;28;20059;-68
2021/06/01 08:27:11;;;;;;;2.65;2.20;;;21.20;96.80;;;20.68;59.82;100581.69;4119706;28;20041;-68
2021/06/01 08:29:13;;;;;;;4.10;2.78;;;21.40;96.10;;;20.53;59.08;100573.22;4119467;28;20398;-68
2021/06/01 08:31:14;;;;;;;4.03;2.50;;;21.40;95.50;;;20.75;60.30;100581.59;4119460;28;20035;-68
2021/06/01 08:33:15;;;;;;;3.92;2.50;;;21.50;96.30;;;20.89;58.88;100564.28;4118705;28;20450;-68
2021/06/01 08:35:16;;;;;;;5.15;2.53;;;21.60;95.50;;;20.96;58.32;100565.84;4119396;28;20103;-68
2021/06/01 08:37:17;;;;;;;3.42;2.72;;;21.70;95.20;;;20.94;60.45;100559.88;4119169;28;20122;-68
2021/06/01 08:39:24;;;;;;;6.03;2.28;;;21.80;96.20;;;21.12;62.02;100561.69;4119366;28;20062;-68
2021/06/01 08:41:25;;;;;;;3.75;2.40;;;21.90;96.70;;;21.10;59.46;100573.72;4119655;28;20031;-68
2021/06/01 08:43:27;;;;;;;5.40;2.13;;;22.00;95.50;;;21.26;57.93;100562.34;4119332;28;20511;-68